createdAt,value
2019-04-01T00:00:34.455Z,16.93
2019-04-01T00:03:04.329Z,17.13
2019-04-01T00:05:33.221Z,16.50
2019-04-01T00:08:02.099Z,16.73
2019-04-01T00:10:31.103Z,16.17
2019-04-01T00:12:59.993Z,16.30
2019-04-01T00:15:28.886Z,16.20
2019-04-01T00:17:57.981Z,16.77
2019-04-01T00:20:26.874Z,17.03
2019-04-01T00:22:55.894Z,16.73
2019-04-01T00:25:25.065Z,16.00
2019-04-01T00:27:54.058Z,16.70
2019-04-01T00:30:22.947Z,17.37
2019-04-01T00:32:51.943Z,17.43
2019-04-01T00:35:20.936Z,16.20
2019-04-01T00:37:49.830Z,16.97
2019-04-01T00:40:18.773Z,16.90
2019-04-01T00:42:49.454Z,17.73
2019-04-01T00:45:19.965Z,16.63
2019-04-01T00:47:48.977Z,17.47
2019-04-01T00:50:17.870Z,15.87
2019-04-01T00:52:46.761Z,16.70
2019-04-01T00:55:15.652Z,17.27
2019-04-01T00:57:44.542Z,16.53
2019-04-01T01:00:14.765Z,16.37
2019-04-01T01:02:43.655Z,15.67
2019-04-01T01:05:12.547Z,15.17
2019-04-01T01:07:41.642Z,16.10
2019-04-01T01:10:11.058Z,15.33
2019-04-01T01:12:40.040Z,16.40
2019-04-01T01:15:09.324Z,15.50
2019-04-01T01:17:38.333Z,14.73
2019-04-01T01:20:07.946Z,15.07
2019-04-01T01:22:37.037Z,16.17
2019-04-01T01:25:06.934Z,15.30
2019-04-01T01:27:35.847Z,14.90
2019-04-01T01:30:07.398Z,15.13
2019-04-01T01:32:36.263Z,15.23
2019-04-01T01:35:05.897Z,15.00
2019-04-01T01:37:34.891Z,15.13
2019-04-01T01:40:04.296Z,15.20
2019-04-01T01:42:33.390Z,16.10
2019-04-01T01:45:02.281Z,15.30
2019-04-01T01:47:31.252Z,15.33
2019-04-01T01:50:00.237Z,15.60
2019-04-01T01:52:29.466Z,15.40
2019-04-01T01:54:58.336Z,14.93
2019-04-01T01:57:27.249Z,15.73
2019-04-01T01:59:56.141Z,14.90
2019-04-01T02:02:25.131Z,14.53
2019-04-01T02:04:54.029Z,15.13
2019-04-01T02:07:22.916Z,14.73
2019-04-01T02:09:51.787Z,14.87
2019-04-01T02:12:20.697Z,14.33
2019-04-01T02:14:49.589Z,13.87
2019-04-01T02:17:18.481Z,15.13
2019-04-01T02:19:47.326Z,15.90
2019-04-01T02:22:16.161Z,14.53
2019-04-01T02:24:45.032Z,16.17
2019-04-01T02:27:13.861Z,15.63
2019-04-01T02:29:42.731Z,14.83
2019-04-01T02:32:11.565Z,14.27
2019-04-01T02:34:40.427Z,14.93
2019-04-01T02:37:09.259Z,15.63
2019-04-01T02:39:38.134Z,15.33
2019-04-01T02:42:06.956Z,14.67
2019-04-01T02:44:35.831Z,14.47
2019-04-01T02:47:04.660Z,14.30
2019-04-01T02:49:33.539Z,14.77
2019-04-01T02:52:02.373Z,15.47
2019-04-01T02:54:31.252Z,15.00
2019-04-01T02:57:00.078Z,14.00
2019-04-01T02:59:28.953Z,15.00
2019-04-01T03:01:57.791Z,14.30
2019-04-01T03:04:26.672Z,13.47
2019-04-01T03:06:55.494Z,15.20
2019-04-01T03:09:24.382Z,13.60
2019-04-01T03:11:53.199Z,14.47
2019-04-01T03:14:22.068Z,14.47
2019-04-01T03:16:50.935Z,14.97
2019-04-01T03:19:19.769Z,14.87
2019-04-01T03:21:48.642Z,14.87
2019-04-01T03:24:17.512Z,14.33
2019-04-01T03:26:46.341Z,14.67
2019-04-01T03:29:15.219Z,14.30
2019-04-01T03:31:44.132Z,14.50
2019-04-01T03:34:12.956Z,15.47
2019-04-01T03:36:42.126Z,15.03
2019-04-01T03:39:11.000Z,14.97
2019-04-01T03:41:39.833Z,15.87
2019-04-01T03:44:08.711Z,14.70
2019-04-01T03:46:37.582Z,14.03
2019-04-01T03:49:06.545Z,13.47
2019-04-01T03:51:35.582Z,14.40
2019-04-01T03:54:04.455Z,15.23
2019-04-01T03:56:33.288Z,15.27
2019-04-01T03:59:02.172Z,14.53
2019-04-01T04:01:31.030Z,13.60
2019-04-01T04:03:59.849Z,13.27
2019-04-01T04:06:28.812Z,13.03
2019-04-01T04:09:01.616Z,13.73
2019-04-01T04:11:28.167Z,12.80
2019-04-01T04:13:57.051Z,13.80
2019-04-01T04:16:25.911Z,13.87
2019-04-01T04:18:54.739Z,13.40
2019-04-01T04:21:24.243Z,14.23
2019-04-01T04:23:53.471Z,13.80
2019-04-01T04:26:22.303Z,14.30
2019-04-01T04:28:51.179Z,14.07
2019-04-01T04:31:20.042Z,14.37
2019-04-01T04:33:48.877Z,13.70
2019-04-01T04:36:17.826Z,12.43
2019-04-01T04:38:46.782Z,13.67
2019-04-01T04:41:16.266Z,13.20
2019-04-01T04:43:45.118Z,14.13
2019-04-01T04:46:13.990Z,12.37
2019-04-01T04:48:42.819Z,13.10
2019-04-01T04:51:11.688Z,12.77
2019-04-01T04:53:40.563Z,13.87
2019-04-01T04:56:09.395Z,12.73
2019-04-01T04:58:38.265Z,13.20
2019-04-01T05:01:07.137Z,13.97
2019-04-01T05:03:35.964Z,13.20
2019-04-01T05:06:04.836Z,13.37
2019-04-01T05:08:33.712Z,13.73
2019-04-01T05:11:02.547Z,13.87
2019-04-01T05:13:31.415Z,12.50
2019-04-01T05:16:00.287Z,13.97
2019-04-01T05:18:29.122Z,12.77
2019-04-01T05:20:59.595Z,12.87
2019-04-01T05:23:29.366Z,13.10
2019-04-01T05:25:59.099Z,13.07
2019-04-01T05:28:29.979Z,13.73
2019-04-01T05:31:00.451Z,14.67
2019-04-01T05:33:29.571Z,14.17
2019-04-01T05:35:58.437Z,13.17
2019-04-01T05:38:27.407Z,15.17
2019-04-01T05:40:56.243Z,13.13
2019-04-01T05:43:25.411Z,14.40
2019-04-01T05:45:54.270Z,13.60
2019-04-01T05:48:24.671Z,14.53
2019-04-01T05:50:53.748Z,13.57
2019-04-01T05:53:22.619Z,15.00
2019-04-01T05:55:51.447Z,14.73
2019-04-01T05:58:20.324Z,13.37
2019-04-01T06:00:51.164Z,12.97
2019-04-01T06:03:20.415Z,13.20
2019-04-01T06:05:49.379Z,12.13
2019-04-01T06:08:18.247Z,12.40
2019-04-01T06:10:47.079Z,12.83
2019-04-01T06:13:16.249Z,12.40
2019-04-01T06:15:45.218Z,11.93
2019-04-01T06:18:26.242Z,11.73
2019-04-01T06:20:55.118Z,10.47
2019-04-01T06:23:23.947Z,11.30
2019-04-01T06:25:53.311Z,10.03
2019-04-01T06:28:22.182Z,9.97
2019-04-01T06:30:52.591Z,10.07
2019-04-01T06:33:21.459Z,8.80
2019-04-01T06:35:50.323Z,10.40
2019-04-01T06:38:19.257Z,9.20
2019-04-01T06:40:48.619Z,8.63
2019-04-01T06:43:17.484Z,9.70
2019-04-01T06:45:46.306Z,9.20
2019-04-01T06:48:15.174Z,8.77
2019-04-01T06:50:44.048Z,8.77
2019-04-01T06:53:12.873Z,8.40
2019-04-01T06:55:41.835Z,8.20
2019-04-01T06:58:12.084Z,8.10
2019-04-01T07:00:41.131Z,8.30
2019-04-01T07:03:10.091Z,8.50
2019-04-01T07:05:38.964Z,8.70
2019-04-01T07:08:07.996Z,7.87
2019-04-01T07:10:36.852Z,7.87
2019-04-01T07:13:05.723Z,7.47
2019-04-01T07:15:34.885Z,7.90
2019-04-01T07:18:03.713Z,7.70
2019-04-01T07:20:32.575Z,7.33
2019-04-01T07:23:01.503Z,7.77
2019-04-01T07:25:33.836Z,7.13
2019-04-01T07:28:00.994Z,7.83
2019-04-01T07:30:29.815Z,7.60
2019-04-01T07:32:58.688Z,7.73
2019-04-01T07:35:27.564Z,7.30
2019-04-01T07:37:56.488Z,7.37
2019-04-01T07:40:25.351Z,7.07
2019-04-01T07:42:54.219Z,6.47
2019-04-01T07:45:23.048Z,7.20
2019-04-01T07:47:51.924Z,6.90
2019-04-01T07:50:20.784Z,7.00
2019-04-01T07:52:49.598Z,7.03
2019-04-01T07:55:18.469Z,7.87
2019-04-01T07:57:47.329Z,7.23
2019-04-01T08:00:16.454Z,6.87
2019-04-01T08:02:48.818Z,7.03
2019-04-01T08:05:16.518Z,6.57
2019-04-01T08:07:45.343Z,6.60
2019-04-01T08:10:14.616Z,6.03
2019-04-01T08:12:43.479Z,5.70
2019-04-01T08:15:12.444Z,5.43
2019-04-01T08:17:41.307Z,5.70
2019-04-01T08:20:10.284Z,5.93
2019-04-01T08:22:39.116Z,5.53
2019-04-01T08:25:08.378Z,5.83
2019-04-01T08:27:49.271Z,5.83
2019-04-01T08:30:18.237Z,6.03
2019-04-01T08:32:47.107Z,6.70
2019-04-01T08:35:16.135Z,5.90
2019-04-01T08:37:45.004Z,6.27
2019-04-01T08:40:14.074Z,6.37
2019-04-01T08:42:43.007Z,6.83
2019-04-01T08:45:12.676Z,6.20
2019-04-01T08:47:41.544Z,6.67
2019-04-01T08:50:10.635Z,7.03
2019-04-01T08:52:39.509Z,6.57
2019-04-01T08:55:08.327Z,6.60
2019-04-01T08:57:37.182Z,6.10
2019-04-01T09:00:07.527Z,7.30
2019-04-01T09:02:36.392Z,7.07
2019-04-01T09:05:06.123Z,6.93
2019-04-01T09:07:34.999Z,6.57
2019-04-01T09:10:04.166Z,6.50
2019-04-01T09:12:45.282Z,6.67
2019-04-01T09:15:14.230Z,6.37
2019-04-01T09:17:43.073Z,7.37
2019-04-01T09:20:11.934Z,7.20
2019-04-01T09:22:40.806Z,7.53
2019-04-01T09:25:27.871Z,7.10
2019-04-01T09:27:56.847Z,7.13
2019-04-01T09:30:25.680Z,6.63
2019-04-01T09:32:54.552Z,7.03
2019-04-01T09:35:23.442Z,7.13
2019-04-01T09:37:52.316Z,7.37
2019-04-01T09:40:21.148Z,7.67
2019-04-01T09:42:50.020Z,7.13
2019-04-01T09:45:18.846Z,8.03
2019-04-01T09:47:47.708Z,7.77
2019-04-01T09:50:16.538Z,7.73
2019-04-01T09:52:45.416Z,6.97
2019-04-01T09:55:14.646Z,8.03
2019-04-01T09:57:43.512Z,8.20
2019-04-01T10:00:12.856Z,9.10
2019-04-01T10:02:41.684Z,9.00
2019-04-01T10:05:10.758Z,8.63
2019-04-01T10:07:39.634Z,7.80
2019-04-01T10:10:12.227Z,7.73
2019-04-01T10:12:41.052Z,8.43
2019-04-01T10:15:10.033Z,8.87
2019-04-01T10:17:38.864Z,8.47
2019-04-01T10:20:08.733Z,8.70
2019-04-01T10:22:37.563Z,9.63
2019-04-01T10:25:06.738Z,9.23
2019-04-01T10:27:35.572Z,9.03
2019-04-01T10:30:07.171Z,9.10
2019-04-01T10:32:36.007Z,9.33
2019-04-01T10:35:06.981Z,8.40
2019-04-01T10:37:35.810Z,9.47
2019-04-01T10:40:06.975Z,9.23
2019-04-01T10:42:35.919Z,9.80
2019-04-01T10:45:09.504Z,9.03
2019-04-01T10:47:38.388Z,10.47
2019-04-01T10:50:08.327Z,10.60
2019-04-01T10:52:37.268Z,10.97
2019-04-01T10:55:07.053Z,9.57
2019-04-01T10:57:35.919Z,9.37
2019-04-01T11:00:07.570Z,9.27
2019-04-01T11:02:36.436Z,10.00
2019-04-01T11:05:07.770Z,10.80
2019-04-01T11:07:36.597Z,9.43
2019-04-01T11:10:11.302Z,9.77
2019-04-01T11:12:38.717Z,9.40
2019-04-01T11:15:08.088Z,9.77
2019-04-01T11:17:36.974Z,10.03
2019-04-01T11:20:09.484Z,10.03
2019-04-01T11:22:38.405Z,10.10
2019-04-01T11:25:08.312Z,10.17
2019-04-01T11:27:37.371Z,8.93
2019-04-01T11:30:08.024Z,10.13
2019-04-01T11:32:37.936Z,10.47
2019-04-01T11:35:08.007Z,8.53
2019-04-01T11:37:36.907Z,8.97
2019-04-01T11:40:11.131Z,9.63
2019-04-01T11:42:40.392Z,9.30
2019-04-01T11:45:08.948Z,9.27
2019-04-01T11:47:37.816Z,10.23
2019-04-01T11:50:07.896Z,10.87
2019-04-01T11:52:38.079Z,10.30
2019-04-01T11:55:09.121Z,10.20
2019-04-01T11:57:38.534Z,10.50
2019-04-01T12:00:12.738Z,10.00
2019-04-01T12:02:41.692Z,10.00
2019-04-01T12:05:12.254Z,10.07
2019-04-01T12:07:41.168Z,10.13
2019-04-01T12:10:10.634Z,10.00
2019-04-01T12:12:39.536Z,9.93
2019-04-01T12:15:12.075Z,9.80
2019-04-01T12:17:41.519Z,9.77
2019-04-01T12:20:10.025Z,10.97
2019-04-01T12:22:40.596Z,9.00
2019-04-01T12:25:09.659Z,10.27
2019-04-01T12:27:50.519Z,8.53
2019-04-01T12:30:19.495Z,8.97
2019-04-01T12:32:49.604Z,8.43
2019-04-01T12:35:19.303Z,9.80
2019-04-01T12:37:48.488Z,8.77
2019-04-01T12:40:17.354Z,9.97
2019-04-01T12:42:46.617Z,9.30
2019-04-01T12:45:15.972Z,8.80
2019-04-01T12:47:44.808Z,8.37
2019-04-01T12:50:13.878Z,9.23
2019-04-01T12:52:42.903Z,9.13
2019-04-01T12:55:11.957Z,9.10
2019-04-01T12:57:40.788Z,8.30
2019-04-01T13:00:11.996Z,9.23
2019-04-01T13:02:40.815Z,8.93
2019-04-01T13:05:09.679Z,8.50
2019-04-01T13:07:38.515Z,9.13
2019-04-01T13:10:07.894Z,8.37
2019-04-01T13:12:36.798Z,8.27
2019-04-01T13:15:06.078Z,7.63
2019-04-01T13:17:35.067Z,8.93
2019-04-01T13:20:05.215Z,9.70
2019-04-01T13:22:34.104Z,8.60
2019-04-01T13:25:05.658Z,9.23
2019-04-01T13:27:33.525Z,9.10
2019-04-01T13:30:02.419Z,8.33
2019-04-01T13:32:31.308Z,8.47
2019-04-01T13:35:00.301Z,8.07
2019-04-01T13:37:29.173Z,9.10
2019-04-01T13:39:58.084Z,9.30
2019-04-01T13:42:26.908Z,9.07
2019-04-01T13:44:55.772Z,8.77
2019-04-01T13:47:24.607Z,9.43
2019-04-01T13:49:53.475Z,8.03
2019-04-01T13:52:22.311Z,8.37
2019-04-01T13:54:51.161Z,7.50
2019-04-01T13:57:20.032Z,8.33
2019-04-01T13:59:49.854Z,9.27
2019-04-01T14:02:19.378Z,7.90
2019-04-01T14:04:48.207Z,8.03
2019-04-01T14:07:17.075Z,8.50
2019-04-01T14:09:45.903Z,7.47
2019-04-01T14:12:14.933Z,9.30
2019-04-01T14:14:43.859Z,9.63
2019-04-01T14:17:12.810Z,7.73
2019-04-01T14:19:41.707Z,8.40
2019-04-01T14:22:10.872Z,8.60
2019-04-01T14:24:42.518Z,8.43
2019-04-01T14:27:11.805Z,9.13
2019-04-01T14:29:41.634Z,9.00
2019-04-01T14:32:10.556Z,8.30
2019-04-01T14:34:40.081Z,9.43
2019-04-01T14:37:09.964Z,8.80
2019-04-01T14:39:40.138Z,8.63
2019-04-01T14:42:10.170Z,8.37
2019-04-01T14:44:39.047Z,8.60
2019-04-01T14:47:09.209Z,8.47
2019-04-01T14:49:38.417Z,8.03
2019-04-01T14:52:08.898Z,8.80
2019-04-01T14:54:37.864Z,8.73
2019-04-01T14:57:08.286Z,8.23
2019-04-01T14:59:37.353Z,8.80
2019-04-01T15:02:06.675Z,7.70
2019-04-01T15:04:36.021Z,7.30
2019-04-01T15:07:04.913Z,7.70
2019-04-01T15:09:36.063Z,6.67
2019-04-01T15:12:04.938Z,7.50
2019-04-01T15:14:34.685Z,8.40
2019-04-01T15:17:06.353Z,9.00
2019-04-01T15:19:35.330Z,8.17
2019-04-01T15:22:04.167Z,8.23
2019-04-01T15:24:33.049Z,7.70
2019-04-01T15:27:02.122Z,8.00
2019-04-01T15:29:30.947Z,8.40
2019-04-01T15:31:59.826Z,7.53
2019-04-01T15:34:28.660Z,6.60
2019-04-01T15:36:59.282Z,8.60
2019-04-01T15:39:28.314Z,7.90
2019-04-01T15:41:57.312Z,8.73
2019-04-01T15:44:29.187Z,8.33
2019-04-01T15:46:56.730Z,8.37
2019-04-01T15:49:25.621Z,8.10
2019-04-01T15:51:54.624Z,7.93
2019-04-01T15:54:23.507Z,7.90
2019-04-01T15:56:52.397Z,8.77
2019-04-01T15:59:21.288Z,9.23
2019-04-01T16:01:50.159Z,8.17
2019-04-01T16:04:19.173Z,8.90
2019-04-01T16:06:48.167Z,8.07
2019-04-01T16:09:17.161Z,8.37
2019-04-01T16:11:48.062Z,9.77
2019-04-01T16:14:19.333Z,8.30
2019-04-01T16:16:47.292Z,8.73
2019-04-01T16:19:16.309Z,8.97
2019-04-01T16:21:45.200Z,9.43
2019-04-01T16:24:14.255Z,9.37
2019-04-01T16:26:44.317Z,9.17
2019-04-01T16:29:13.206Z,8.20
2019-04-01T16:31:42.200Z,9.30
2019-04-01T16:34:11.094Z,7.93
2019-04-01T16:36:39.959Z,9.27
2019-04-01T16:39:09.995Z,9.00
2019-04-01T16:41:39.094Z,8.77
2019-04-01T16:44:44.760Z,9.50
2019-04-01T16:47:14.558Z,9.13
2019-04-01T16:49:43.630Z,8.60
2019-04-01T16:52:15.313Z,9.30
2019-04-01T16:54:46.047Z,9.63
2019-04-01T16:57:15.024Z,9.50
2019-04-01T16:59:43.944Z,8.90
2019-04-01T17:02:18.089Z,9.70
2019-04-01T17:04:46.159Z,9.10
2019-04-01T17:07:15.095Z,8.57
2019-04-01T17:09:43.931Z,8.87
2019-04-01T17:12:12.766Z,9.37
2019-04-01T17:14:43.253Z,9.10
2019-04-01T17:17:12.102Z,8.87
2019-04-01T17:19:40.943Z,9.77
2019-04-01T17:22:11.386Z,8.40
2019-04-01T17:24:40.632Z,8.67
2019-04-01T17:27:12.515Z,8.60
2019-04-01T17:29:43.920Z,8.70
2019-04-01T17:32:12.789Z,8.50
2019-04-01T17:34:41.618Z,8.70
2019-04-01T17:37:10.796Z,8.37
2019-04-01T17:39:39.623Z,8.60
2019-04-01T17:42:08.499Z,8.20
2019-04-01T17:44:37.334Z,8.37
2019-04-01T17:47:06.593Z,9.03
2019-04-01T17:49:35.581Z,7.90
2019-04-01T17:52:04.571Z,8.27
2019-04-01T17:54:33.389Z,9.27
2019-04-01T17:57:02.264Z,7.90
2019-04-01T17:59:31.088Z,8.50
2019-04-01T18:01:59.929Z,8.23
2019-04-01T18:04:28.799Z,7.90
2019-04-01T18:06:58.393Z,7.90
2019-04-01T18:09:27.305Z,7.23
2019-04-01T18:11:56.123Z,7.00
2019-04-01T18:14:24.993Z,6.97
2019-04-01T18:16:53.827Z,7.20
2019-04-01T18:19:22.707Z,6.77
2019-04-01T18:21:51.541Z,8.40
2019-04-01T18:24:20.402Z,6.53
2019-04-01T18:26:49.347Z,7.53
2019-04-01T18:29:18.422Z,6.70
2019-04-01T18:31:47.256Z,7.53
2019-04-01T18:34:17.280Z,6.80
2019-04-01T18:36:46.212Z,6.43
2019-04-01T18:39:15.350Z,6.70
2019-04-01T18:41:45.576Z,6.40
2019-04-01T18:44:14.807Z,7.03
2019-04-01T18:46:43.917Z,6.53
2019-04-01T18:49:12.851Z,6.53
2019-04-01T18:51:41.739Z,6.40
2019-04-01T18:54:10.591Z,6.60
2019-04-01T18:56:42.139Z,6.33
2019-04-01T18:59:11.011Z,6.23
2019-04-01T19:01:39.847Z,5.87
2019-04-01T19:04:08.715Z,5.77
2019-04-01T19:06:37.693Z,5.87
2019-04-01T19:09:09.314Z,5.77
2019-04-01T19:11:38.494Z,6.37
2019-04-01T19:14:07.391Z,5.97
2019-04-01T19:16:36.300Z,6.27
2019-04-01T19:19:05.273Z,6.00
2019-04-01T19:21:34.160Z,6.07
2019-04-01T19:24:06.434Z,5.80
2019-04-01T19:26:33.606Z,6.97
2019-04-01T19:29:02.498Z,6.10
2019-04-01T19:31:31.391Z,5.17
2019-04-01T19:34:00.384Z,6.03
2019-04-01T19:36:30.144Z,5.43
2019-04-01T19:38:59.394Z,5.20
2019-04-01T19:41:28.239Z,5.30
2019-04-01T19:43:57.075Z,5.63
2019-04-01T19:46:25.947Z,5.60
2019-04-01T19:48:54.809Z,5.00
2019-04-01T19:51:23.645Z,5.27
2019-04-01T19:53:53.272Z,5.33
2019-04-01T19:56:22.484Z,6.00
2019-04-01T19:58:51.310Z,5.50
2019-04-01T20:01:20.587Z,6.30
2019-04-01T20:03:49.446Z,5.60
2019-04-01T20:06:18.529Z,5.80
2019-04-01T20:08:49.724Z,5.63
2019-04-01T20:11:18.249Z,6.20
2019-04-01T20:13:47.076Z,6.20
2019-04-01T20:16:16.042Z,5.47
2019-04-01T20:18:57.425Z,5.70
2019-04-01T20:21:28.102Z,6.00
2019-04-01T20:23:56.846Z,5.87
2019-04-01T20:26:25.710Z,6.27
2019-04-01T20:28:54.731Z,6.23
2019-04-01T20:31:23.723Z,6.23
2019-04-01T20:33:52.545Z,5.93
2019-04-01T20:36:28.408Z,6.23
2019-04-01T20:38:51.902Z,6.63
2019-04-01T20:41:21.627Z,6.57
2019-04-01T20:44:03.015Z,6.13
2019-04-01T20:46:31.876Z,5.97
2019-04-01T20:49:02.009Z,6.10
2019-04-01T20:51:31.074Z,6.43
2019-04-01T20:53:59.901Z,6.07
2019-04-01T20:56:28.815Z,6.03
2019-04-01T20:58:57.680Z,5.70
2019-04-01T21:01:26.598Z,6.47
2019-04-01T21:03:55.596Z,5.90
2019-04-01T21:06:24.484Z,5.53
2019-04-01T21:08:53.374Z,6.43
2019-04-01T21:11:22.266Z,5.90
2019-04-01T21:14:22.670Z,6.67
2019-04-01T21:16:51.793Z,5.30
2019-04-01T21:19:22.117Z,5.60
2019-04-01T21:21:51.189Z,5.77
2019-04-01T21:24:20.186Z,5.73
2019-04-01T21:26:49.098Z,5.80
2019-04-01T21:29:18.090Z,5.93
2019-04-01T21:31:47.179Z,5.90
2019-04-01T21:34:16.990Z,5.70
2019-04-01T21:36:47.011Z,5.60
2019-04-01T21:39:15.891Z,5.87
2019-04-01T21:41:44.808Z,5.43
2019-04-01T21:44:13.668Z,5.37
2019-04-01T21:46:43.216Z,5.60
2019-04-01T21:49:14.137Z,5.37
2019-04-01T21:51:42.977Z,5.83
2019-04-01T21:54:11.843Z,5.33
2019-04-01T21:56:40.663Z,5.37
2019-04-01T21:59:10.623Z,5.47
2019-04-01T22:01:39.527Z,5.40
2019-04-01T22:04:08.382Z,5.23
2019-04-01T22:06:39.012Z,5.80
2019-04-01T22:09:09.512Z,5.00
2019-04-01T22:11:38.460Z,5.53
2019-04-01T22:14:07.350Z,5.27
2019-04-01T22:16:36.242Z,5.17
2019-04-01T22:19:05.351Z,5.13
2019-04-01T22:21:34.681Z,5.20
2019-04-01T22:24:04.283Z,5.53
2019-04-01T22:26:33.551Z,5.30
2019-04-01T22:29:02.438Z,5.10
2019-04-01T22:31:33.024Z,4.93
2019-04-01T22:34:01.971Z,5.27
2019-04-01T22:36:31.473Z,4.67
2019-04-01T22:39:00.460Z,5.13
2019-04-01T22:41:29.450Z,4.70
2019-04-01T22:43:58.839Z,4.63
2019-04-01T22:46:27.700Z,4.57
2019-04-01T22:48:56.519Z,4.97
2019-04-01T22:51:25.380Z,4.97
2019-04-01T22:53:54.240Z,5.40
2019-04-01T22:56:23.060Z,4.90
2019-04-01T22:58:51.924Z,5.07
2019-04-01T23:01:21.874Z,4.90
2019-04-01T23:03:50.807Z,5.23
2019-04-01T23:06:19.698Z,4.90
2019-04-01T23:08:48.589Z,4.80
2019-04-01T23:11:18.608Z,4.40
2019-04-01T23:13:49.228Z,5.07
2019-04-01T23:16:18.035Z,5.10
2019-04-01T23:18:47.127Z,5.10
2019-04-01T23:21:16.021Z,4.80
2019-04-01T23:23:44.907Z,4.57
2019-04-01T23:26:13.798Z,4.83
2019-04-01T23:28:42.691Z,4.80
2019-04-01T23:31:11.586Z,5.07
2019-04-01T23:33:40.471Z,4.90
2019-04-01T23:36:09.438Z,4.53
2019-04-01T23:38:38.357Z,4.47
2019-04-01T23:41:07.247Z,5.10
2019-04-01T23:47:04.525Z,4.87
2019-04-01T23:49:33.415Z,5.07
2019-04-01T23:52:02.413Z,5.00
2019-04-01T23:54:31.631Z,4.40
2019-04-01T23:57:00.682Z,4.73
2019-04-01T23:59:29.697Z,5.00
